sensor_id;sensor_type;location;lat;lon;timestamp;temperature;humidity
67893;DHT22;54688;52.376;16.744;2024-01-10T00:02:37;-11.2;73
67893;DHT22;54688;52.376;16.744;2024-01-10T00:05:40;-11.2;73.4
67893;DHT22;54688;52.376;16.744;2024-01-10T00:08:43;-11.2;72.9
67893;DHT22;54688;52.376;16.744;2024-01-10T00:11:45;-11.2;72.3
67893;DHT22;54688;52.376;16.744;2024-01-10T00:14:47;-11.3;71.9
67893;DHT22;54688;52.376;16.744;2024-01-10T00:17:50;-11.3;71.9
67893;DHT22;54688;52.376;16.744;2024-01-10T00:20:52;-11.3;72.6
67893;DHT22;54688;52.376;16.744;2024-01-10T00:23:55;-11.3;72.8
67893;DHT22;54688;52.376;16.744;2024-01-10T00:26:57;-11.3;73
67893;DHT22;54688;52.376;16.744;2024-01-10T00:30:00;-11.4;72.3
67893;DHT22;54688;52.376;16.744;2024-01-10T00:33:02;-11.3;72.8
67893;DHT22;54688;52.376;16.744;2024-01-10T00:36:05;-11.3;73
67893;DHT22;54688;52.376;16.744;2024-01-10T00:39:07;-11.3;73.3
67893;DHT22;54688;52.376;16.744;2024-01-10T00:42:11;-11.2;73.4
67893;DHT22;54688;52.376;16.744;2024-01-10T00:45:13;-11.3;73
67893;DHT22;54688;52.376;16.744;2024-01-10T00:48:15;-11.3;73.4
67893;DHT22;54688;52.376;16.744;2024-01-10T00:51:18;-11.2;73.7
67893;DHT22;54688;52.376;16.744;2024-01-10T00:54:20;-11.2;73.8
67893;DHT22;54688;52.376;16.744;2024-01-10T00:57:23;-11.2;73.7
67893;DHT22;54688;52.376;16.744;2024-01-10T01:00:25;-11.2;74.1
67893;DHT22;54688;52.376;16.744;2024-01-10T01:03:27;-11.2;74.4
67893;DHT22;54688;52.376;16.744;2024-01-10T01:06:30;-11.1;74.6
67893;DHT22;54688;52.376;16.744;2024-01-10T01:09:33;-11.1;74.6
67893;DHT22;54688;52.376;16.744;2024-01-10T01:12:35;-11.1;74.3
67893;DHT22;54688;52.376;16.744;2024-01-10T01:15:37;-11.1;74.3
67893;DHT22;54688;52.376;16.744;2024-01-10T01:18:40;-11.1;73.9
67893;DHT22;54688;52.376;16.744;2024-01-10T01:21:42;-11.2;73.7
67893;DHT22;54688;52.376;16.744;2024-01-10T01:24:44;-11.2;74.2
67893;DHT22;54688;52.376;16.744;2024-01-10T01:27:46;-11.2;74
67893;DHT22;54688;52.376;16.744;2024-01-10T01:30:49;-11.3;73
67893;DHT22;54688;52.376;16.744;2024-01-10T01:33:51;-11.3;73
67893;DHT22;54688;52.376;16.744;2024-01-10T01:36:53;-11.4;72.9
67893;DHT22;54688;52.376;16.744;2024-01-10T01:39:55;-11.4;72.5
67893;DHT22;54688;52.376;16.744;2024-01-10T01:42:58;-11.4;72.9
67893;DHT22;54688;52.376;16.744;2024-01-10T01:46:01;-11.4;73.4
67893;DHT22;54688;52.376;16.744;2024-01-10T01:49:04;-11.4;73
67893;DHT22;54688;52.376;16.744;2024-01-10T01:52:07;-11.4;73
67893;DHT22;54688;52.376;16.744;2024-01-10T01:55:08;-11.4;72.9
67893;DHT22;54688;52.376;16.744;2024-01-10T01:58:11;-11.4;73.2
67893;DHT22;54688;52.376;16.744;2024-01-10T02:01:13;-11.4;73.9
67893;DHT22;54688;52.376;16.744;2024-01-10T02:04:17;-11.4;74.3
67893;DHT22;54688;52.376;16.744;2024-01-10T02:07:19;-11.4;73.5
67893;DHT22;54688;52.376;16.744;2024-01-10T02:10:22;-11.4;73.6
67893;DHT22;54688;52.376;16.744;2024-01-10T02:13:24;-11.4;73.4
67893;DHT22;54688;52.376;16.744;2024-01-10T02:16:27;-11.4;72.9
67893;DHT22;54688;52.376;16.744;2024-01-10T02:19:30;-11.4;72.8
67893;DHT22;54688;52.376;16.744;2024-01-10T02:22:32;-11.5;72.4
67893;DHT22;54688;52.376;16.744;2024-01-10T02:25:34;-11.5;72.4
67893;DHT22;54688;52.376;16.744;2024-01-10T02:28:37;-11.6;72.3
67893;DHT22;54688;52.376;16.744;2024-01-10T02:31:39;-11.5;72.6
67893;DHT22;54688;52.376;16.744;2024-01-10T02:34:42;-11.6;72.1
67893;DHT22;54688;52.376;16.744;2024-01-10T02:37:44;-11.6;72.5
67893;DHT22;54688;52.376;16.744;2024-01-10T02:40:46;-11.5;72.9
67893;DHT22;54688;52.376;16.744;2024-01-10T02:43:49;-11.5;73.2
67893;DHT22;54688;52.376;16.744;2024-01-10T02:46:52;-11.5;73.4
67893;DHT22;54688;52.376;16.744;2024-01-10T02:49:54;-11.4;73.4
67893;DHT22;54688;52.376;16.744;2024-01-10T02:52:56;-11.4;72.9
67893;DHT22;54688;52.376;16.744;2024-01-10T02:55:58;-11.5;72.8
67893;DHT22;54688;52.376;16.744;2024-01-10T02:59:00;-11.5;72.8
67893;DHT22;54688;52.376;16.744;2024-01-10T03:02:03;-11.5;72.5
67893;DHT22;54688;52.376;16.744;2024-01-10T03:05:05;-11.6;72.8
67893;DHT22;54688;52.376;16.744;2024-01-10T03:08:07;-11.5;72.9
67893;DHT22;54688;52.376;16.744;2024-01-10T03:11:09;-11.5;73.1
67893;DHT22;54688;52.376;16.744;2024-01-10T03:14:11;-11.5;73.9
67893;DHT22;54688;52.376;16.744;2024-01-10T03:17:13;-11.4;74.1
67893;DHT22;54688;52.376;16.744;2024-01-10T03:20:16;-11.4;74.1
67893;DHT22;54688;52.376;16.744;2024-01-10T03:23:18;-11.4;73.7
67893;DHT22;54688;52.376;16.744;2024-01-10T03:26:20;-11.4;73.6
67893;DHT22;54688;52.376;16.744;2024-01-10T03:29:23;-11.4;73.4
67893;DHT22;54688;52.376;16.744;2024-01-10T03:32:25;-11.5;72.9
67893;DHT22;54688;52.376;16.744;2024-01-10T03:35:27;-11.4;73.7
67893;DHT22;54688;52.376;16.744;2024-01-10T03:38:30;-11.4;74.2
67893;DHT22;54688;52.376;16.744;2024-01-10T03:41:32;-11.4;73.9
67893;DHT22;54688;52.376;16.744;2024-01-10T03:44:35;-11.4;73.6
67893;DHT22;54688;52.376;16.744;2024-01-10T03:47:37;-11.4;73.6
67893;DHT22;54688;52.376;16.744;2024-01-10T03:50:39;-11.4;74.3
67893;DHT22;54688;52.376;16.744;2024-01-10T03:53:42;-11.4;74.1
67893;DHT22;54688;52.376;16.744;2024-01-10T03:56:44;-11.4;74
67893;DHT22;54688;52.376;16.744;2024-01-10T03:59:46;-11.3;74.9
67893;DHT22;54688;52.376;16.744;2024-01-10T04:02:48;-11.3;74.9
67893;DHT22;54688;52.376;16.744;2024-01-10T04:05:51;-11.3;74.6
67893;DHT22;54688;52.376;16.744;2024-01-10T04:08:53;-11.3;74.2
67893;DHT22;54688;52.376;16.744;2024-01-10T04:11:55;-11.3;74.3
67893;DHT22;54688;52.376;16.744;2024-01-10T04:14:57;-11.3;73.6
67893;DHT22;54688;52.376;16.744;2024-01-10T04:17:59;-11.4;73.7
67893;DHT22;54688;52.376;16.744;2024-01-10T04:21:01;-11.4;74.1
67893;DHT22;54688;52.376;16.744;2024-01-10T04:24:04;-11.4;73.5
67893;DHT22;54688;52.376;16.744;2024-01-10T04:27:07;-11.4;73.6
67893;DHT22;54688;52.376;16.744;2024-01-10T04:30:10;-11.4;73.7
67893;DHT22;54688;52.376;16.744;2024-01-10T04:33:13;-11.4;73.2
67893;DHT22;54688;52.376;16.744;2024-01-10T04:36:16;-11.5;72.6
67893;DHT22;54688;52.376;16.744;2024-01-10T04:39:18;-11.6;72.2
67893;DHT22;54688;52.376;16.744;2024-01-10T04:42:20;-11.5;73.2
67893;DHT22;54688;52.376;16.744;2024-01-10T04:48:22;-11.5;72.1
67893;DHT22;54688;52.376;16.744;2024-01-10T04:51:24;-11.5;73.1
67893;DHT22;54688;52.376;16.744;2024-01-10T04:54:26;-11.5;73.6
67893;DHT22;54688;52.376;16.744;2024-01-10T04:57:29;-11.5;73.1
67893;DHT22;54688;52.376;16.744;2024-01-10T05:00:31;-11.5;73.4
67893;DHT22;54688;52.376;16.744;2024-01-10T05:03:33;-11.4;73.4
67893;DHT22;54688;52.376;16.744;2024-01-10T05:06:36;-11.5;73
67893;DHT22;54688;52.376;16.744;2024-01-10T05:09:39;-11.5;72.9
67893;DHT22;54688;52.376;16.744;2024-01-10T05:12:41;-11.5;72.7
67893;DHT22;54688;52.376;16.744;2024-01-10T05:15:43;-11.5;72.8
67893;DHT22;54688;52.376;16.744;2024-01-10T05:18:46;-11.5;72.8
67893;DHT22;54688;52.376;16.744;2024-01-10T05:21:48;-11.6;73.4
67893;DHT22;54688;52.376;16.744;2024-01-10T05:24:50;-11.5;72.7
67893;DHT22;54688;52.376;16.744;2024-01-10T05:27:53;-11.6;72.6
67893;DHT22;54688;52.376;16.744;2024-01-10T05:30:55;-11.6;72.4
67893;DHT22;54688;52.376;16.744;2024-01-10T05:33:58;-11.7;72.2
67893;DHT22;54688;52.376;16.744;2024-01-10T05:37:00;-11.7;72.5
67893;DHT22;54688;52.376;16.744;2024-01-10T05:40:03;-11.7;71.2
67893;DHT22;54688;52.376;16.744;2024-01-10T05:43:06;-11.8;71.5
67893;DHT22;54688;52.376;16.744;2024-01-10T05:46:08;-11.8;72.1
67893;DHT22;54688;52.376;16.744;2024-01-10T05:49:11;-11.8;71.6
67893;DHT22;54688;52.376;16.744;2024-01-10T05:52:13;-11.8;71.9
67893;DHT22;54688;52.376;16.744;2024-01-10T05:55:16;-11.8;72.7
67893;DHT22;54688;52.376;16.744;2024-01-10T05:58:18;-11.7;72.7
67893;DHT22;54688;52.376;16.744;2024-01-10T06:01:21;-11.7;72.4
67893;DHT22;54688;52.376;16.744;2024-01-10T06:04:23;-11.7;71.9
67893;DHT22;54688;52.376;16.744;2024-01-10T06:07:26;-11.8;71.6
67893;DHT22;54688;52.376;16.744;2024-01-10T06:10:28;-11.7;72.2
67893;DHT22;54688;52.376;16.744;2024-01-10T06:13:30;-11.6;72.3
67893;DHT22;54688;52.376;16.744;2024-01-10T06:16:33;-11.6;73.5
67893;DHT22;54688;52.376;16.744;2024-01-10T06:19:34;-11.5;73.9
67893;DHT22;54688;52.376;16.744;2024-01-10T06:22:36;-11.6;73
67893;DHT22;54688;52.376;16.744;2024-01-10T06:25:39;-11.5;73.5
67893;DHT22;54688;52.376;16.744;2024-01-10T06:28:41;-11.5;73.7
67893;DHT22;54688;52.376;16.744;2024-01-10T06:31:44;-11.5;73.5
67893;DHT22;54688;52.376;16.744;2024-01-10T06:34:46;-11.5;73.2
67893;DHT22;54688;52.376;16.744;2024-01-10T06:37:48;-11.5;74.1
67893;DHT22;54688;52.376;16.744;2024-01-10T06:40:50;-11.4;74.4
67893;DHT22;54688;52.376;16.744;2024-01-10T06:43:51;-11.5;73.8
67893;DHT22;54688;52.376;16.744;2024-01-10T06:46:54;-11.5;73.4
67893;DHT22;54688;52.376;16.744;2024-01-10T06:49:57;-11.6;73.6
67893;DHT22;54688;52.376;16.744;2024-01-10T06:52:59;-11.5;73.3
67893;DHT22;54688;52.376;16.744;2024-01-10T06:56:02;-11.5;73.5
67893;DHT22;54688;52.376;16.744;2024-01-10T06:59:04;-11.5;73.5
67893;DHT22;54688;52.376;16.744;2024-01-10T07:02:07;-11.5;73.5
67893;DHT22;54688;52.376;16.744;2024-01-10T07:05:09;-11.4;73.6
67893;DHT22;54688;52.376;16.744;2024-01-10T07:08:12;-11.4;74
67893;DHT22;54688;52.376;16.744;2024-01-10T07:11:15;-11.4;73.7
67893;DHT22;54688;52.376;16.744;2024-01-10T07:14:18;-11.4;73.7
67893;DHT22;54688;52.376;16.744;2024-01-10T07:17:20;-11.4;73.8
67893;DHT22;54688;52.376;16.744;2024-01-10T07:20:23;-11.4;73.7
67893;DHT22;54688;52.376;16.744;2024-01-10T07:23:25;-11.4;72.9
67893;DHT22;54688;52.376;16.744;2024-01-10T07:26:27;-11.5;72.6
67893;DHT22;54688;52.376;16.744;2024-01-10T07:29:29;-11.5;72.8
67893;DHT22;54688;52.376;16.744;2024-01-10T07:32:32;-11.5;73.2
67893;DHT22;54688;52.376;16.744;2024-01-10T07:35:34;-11.4;73.3
67893;DHT22;54688;52.376;16.744;2024-01-10T07:38:37;-11.4;73.4
67893;DHT22;54688;52.376;16.744;2024-01-10T07:41:39;-11.4;73.6
67893;DHT22;54688;52.376;16.744;2024-01-10T07:44:41;-11.3;73.3
67893;DHT22;54688;52.376;16.744;2024-01-10T07:47:43;-11.4;72.8
67893;DHT22;54688;52.376;16.744;2024-01-10T07:50:46;-11.4;72.6
67893;DHT22;54688;52.376;16.744;2024-01-10T07:53:48;-11.4;72.4
67893;DHT22;54688;52.376;16.744;2024-01-10T07:56:50;-11.4;72.7
67893;DHT22;54688;52.376;16.744;2024-01-10T07:59:52;-11.3;72.8
67893;DHT22;54688;52.376;16.744;2024-01-10T08:02:55;-11.2;73
67893;DHT22;54688;52.376;16.744;2024-01-10T08:05:58;-11.2;73
67893;DHT22;54688;52.376;16.744;2024-01-10T08:09:01;-11.1;72.9
67893;DHT22;54688;52.376;16.744;2024-01-10T08:12:03;-11.2;72.3
67893;DHT22;54688;52.376;16.744;2024-01-10T08:15:07;-11.2;72.1
67893;DHT22;54688;52.376;16.744;2024-01-10T08:18:10;-11.2;72.3
67893;DHT22;54688;52.376;16.744;2024-01-10T08:21:12;-11.2;71.9
67893;DHT22;54688;52.376;16.744;2024-01-10T08:24:14;-11.1;71.6
67893;DHT22;54688;52.376;16.744;2024-01-10T08:27:17;-11.1;71.7
67893;DHT22;54688;52.376;16.744;2024-01-10T08:30:19;-11.1;72
67893;DHT22;54688;52.376;16.744;2024-01-10T08:33:22;-11.1;71.2
67893;DHT22;54688;52.376;16.744;2024-01-10T08:36:24;-11;72.2
67893;DHT22;54688;52.376;16.744;2024-01-10T08:39:27;-10.9;72.3
67893;DHT22;54688;52.376;16.744;2024-01-10T08:42:29;-10.8;72.7
67893;DHT22;54688;52.376;16.744;2024-01-10T08:45:31;-10.7;72.3
67893;DHT22;54688;52.376;16.744;2024-01-10T08:48:36;-10.6;72.3
67893;DHT22;54688;52.376;16.744;2024-01-10T08:51:39;-10.6;72.8
67893;DHT22;54688;52.376;16.744;2024-01-10T08:54:41;-10.5;71.7
67893;DHT22;54688;52.376;16.744;2024-01-10T08:57:43;-10.5;71.5
67893;DHT22;54688;52.376;16.744;2024-01-10T09:00:45;-10.5;71.3
67893;DHT22;54688;52.376;16.744;2024-01-10T09:03:48;-10.4;70.6
67893;DHT22;54688;52.376;16.744;2024-01-10T09:06:50;-10.3;72.1
67893;DHT22;54688;52.376;16.744;2024-01-10T09:09:53;-10.2;72.1
67893;DHT22;54688;52.376;16.744;2024-01-10T09:12:55;-10.1;73.2
67893;DHT22;54688;52.376;16.744;2024-01-10T09:16:00;-9.9;73.6
67893;DHT22;54688;52.376;16.744;2024-01-10T09:19:03;-9.8;73.4
67893;DHT22;54688;52.376;16.744;2024-01-10T09:22:04;-9.6;74
67893;DHT22;54688;52.376;16.744;2024-01-10T09:25:07;-9.4;74
67893;DHT22;54688;52.376;16.744;2024-01-10T09:28:10;-9.3;74.8
67893;DHT22;54688;52.376;16.744;2024-01-10T09:31:13;-9.1;74.6
67893;DHT22;54688;52.376;16.744;2024-01-10T09:34:15;-9.1;74
67893;DHT22;54688;52.376;16.744;2024-01-10T09:37:17;-9;73.6
67893;DHT22;54688;52.376;16.744;2024-01-10T09:40:19;-8.9;73.9
67893;DHT22;54688;52.376;16.744;2024-01-10T09:43:22;-8.8;74
67893;DHT22;54688;52.376;16.744;2024-01-10T09:46:24;-8.6;74.4
67893;DHT22;54688;52.376;16.744;2024-01-10T09:49:27;-8.5;74.5
67893;DHT22;54688;52.376;16.744;2024-01-10T09:52:31;-8.3;74.6
67893;DHT22;54688;52.376;16.744;2024-01-10T09:55:39;-8.3;73.2
67893;DHT22;54688;52.376;16.744;2024-01-10T09:58:43;-8.3;72.8
67893;DHT22;54688;52.376;16.744;2024-01-10T10:01:47;-8.2;72.9
67893;DHT22;54688;52.376;16.744;2024-01-10T10:04:51;-8.1;73.6
67893;DHT22;54688;52.376;16.744;2024-01-10T10:07:56;-8;72.8
67893;DHT22;54688;52.376;16.744;2024-01-10T10:10:59;-8;72.7
67893;DHT22;54688;52.376;16.744;2024-01-10T10:14:13;-7.9;73.1
67893;DHT22;54688;52.376;16.744;2024-01-10T10:17:16;-7.8;73
67893;DHT22;54688;52.376;16.744;2024-01-10T10:23:19;-7.5;73.1
67893;DHT22;54688;52.376;16.744;2024-01-10T10:26:22;-7.4;73
67893;DHT22;54688;52.376;16.744;2024-01-10T10:29:25;-7.3;72.4
67893;DHT22;54688;52.376;16.744;2024-01-10T10:32:27;-7.2;72.1
67893;DHT22;54688;52.376;16.744;2024-01-10T10:35:30;-7.1;71.7
67893;DHT22;54688;52.376;16.744;2024-01-10T10:38:32;-6.9;71.2
67893;DHT22;54688;52.376;16.744;2024-01-10T10:41:35;-6.8;70.7
67893;DHT22;54688;52.376;16.744;2024-01-10T10:44:39;-6.6;70.5
67893;DHT22;54688;52.376;16.744;2024-01-10T10:47:45;-6.6;69.9
67893;DHT22;54688;52.376;16.744;2024-01-10T10:50:50;-6.6;69.9
67893;DHT22;54688;52.376;16.744;2024-01-10T10:54:01;-6.5;70.1
67893;DHT22;54688;52.376;16.744;2024-01-10T10:57:04;-6.4;70.7
67893;DHT22;54688;52.376;16.744;2024-01-10T11:00:08;-6.4;69.5
67893;DHT22;54688;52.376;16.744;2024-01-10T11:03:12;-6.3;68.8
67893;DHT22;54688;52.376;16.744;2024-01-10T11:06:15;-6.3;68.4
67893;DHT22;54688;52.376;16.744;2024-01-10T11:09:19;-6.2;68.5
67893;DHT22;54688;52.376;16.744;2024-01-10T11:12:26;-6.2;67.7
67893;DHT22;54688;52.376;16.744;2024-01-10T11:15:42;-6.1;67.2
67893;DHT22;54688;52.376;16.744;2024-01-10T11:19:04;-6.1;66.8
67893;DHT22;54688;52.376;16.744;2024-01-10T11:23:28;-6;66.5
67893;DHT22;54688;52.376;16.744;2024-01-10T11:26:40;-5.9;65.6
67893;DHT22;54688;52.376;16.744;2024-01-10T11:29:43;-5.9;66.3
67893;DHT22;54688;52.376;16.744;2024-01-10T11:32:48;-5.8;65.4
67893;DHT22;54688;52.376;16.744;2024-01-10T11:36:06;-5.8;66.4
67893;DHT22;54688;52.376;16.744;2024-01-10T11:39:13;-5.7;66.3
67893;DHT22;54688;52.376;16.744;2024-01-10T11:42:21;-5.6;66.7
67893;DHT22;54688;52.376;16.744;2024-01-10T11:45:35;-5.5;66.7
67893;DHT22;54688;52.376;16.744;2024-01-10T11:48:38;-5.5;66.5
67893;DHT22;54688;52.376;16.744;2024-01-10T11:51:41;-5.4;66.5
67893;DHT22;54688;52.376;16.744;2024-01-10T11:54:44;-5.3;66.5
67893;DHT22;54688;52.376;16.744;2024-01-10T11:57:48;-5.3;66.5
67893;DHT22;54688;52.376;16.744;2024-01-10T12:01:09;-5.4;67.8
67893;DHT22;54688;52.376;16.744;2024-01-10T12:04:12;-5.3;66.7
67893;DHT22;54688;52.376;16.744;2024-01-10T12:07:15;-5.1;66.1
67893;DHT22;54688;52.376;16.744;2024-01-10T12:10:18;-5;66
67893;DHT22;54688;52.376;16.744;2024-01-10T12:13:20;-4.9;66.5
67893;DHT22;54688;52.376;16.744;2024-01-10T12:16:23;-4.8;65.2
67893;DHT22;54688;52.376;16.744;2024-01-10T12:19:25;-4.7;65.4
67893;DHT22;54688;52.376;16.744;2024-01-10T12:22:28;-4.6;65.2
67893;DHT22;54688;52.376;16.744;2024-01-10T12:25:30;-4.4;65.1
67893;DHT22;54688;52.376;16.744;2024-01-10T12:28:33;-4.4;64.6
67893;DHT22;54688;52.376;16.744;2024-01-10T12:31:35;-4.3;64.6
67893;DHT22;54688;52.376;16.744;2024-01-10T12:34:40;-4.3;64.6
67893;DHT22;54688;52.376;16.744;2024-01-10T12:37:42;-4.2;64.5
67893;DHT22;54688;52.376;16.744;2024-01-10T12:40:55;-4.2;64.8
67893;DHT22;54688;52.376;16.744;2024-01-10T12:43:58;-4.1;65.7
67893;DHT22;54688;52.376;16.744;2024-01-10T12:47:03;-4.1;65
67893;DHT22;54688;52.376;16.744;2024-01-10T12:50:05;-4;64.9
67893;DHT22;54688;52.376;16.744;2024-01-10T12:53:09;-4;65.9
67893;DHT22;54688;52.376;16.744;2024-01-10T12:56:11;-3.9;65.3
67893;DHT22;54688;52.376;16.744;2024-01-10T12:59:14;-3.9;64.6
67893;DHT22;54688;52.376;16.744;2024-01-10T13:02:16;-3.9;64.9
67893;DHT22;54688;52.376;16.744;2024-01-10T13:05:19;-3.9;64.3
67893;DHT22;54688;52.376;16.744;2024-01-10T13:08:21;-3.8;63.3
67893;DHT22;54688;52.376;16.744;2024-01-10T13:11:23;-3.7;63.1
67893;DHT22;54688;52.376;16.744;2024-01-10T13:14:25;-3.5;63
67893;DHT22;54688;52.376;16.744;2024-01-10T13:17:28;-3.5;63
67893;DHT22;54688;52.376;16.744;2024-01-10T13:20:30;-3.4;63.2
67893;DHT22;54688;52.376;16.744;2024-01-10T13:23:32;-3.3;62.7
67893;DHT22;54688;52.376;16.744;2024-01-10T13:26:34;-3.3;62.7
67893;DHT22;54688;52.376;16.744;2024-01-10T13:29:38;-3.2;62.9
67893;DHT22;54688;52.376;16.744;2024-01-10T13:32:40;-3.2;63
67893;DHT22;54688;52.376;16.744;2024-01-10T13:35:43;-3.1;64
67893;DHT22;54688;52.376;16.744;2024-01-10T13:38:45;-3.1;63.5
67893;DHT22;54688;52.376;16.744;2024-01-10T13:41:47;-3;62.9
67893;DHT22;54688;52.376;16.744;2024-01-10T13:44:50;-3;62.9
67893;DHT22;54688;52.376;16.744;2024-01-10T13:47:52;-2.9;62.5
67893;DHT22;54688;52.376;16.744;2024-01-10T13:50:54;-2.8;61.6
67893;DHT22;54688;52.376;16.744;2024-01-10T13:53:58;-2.8;60.7
67893;DHT22;54688;52.376;16.744;2024-01-10T13:57:00;-2.7;60.4
67893;DHT22;54688;52.376;16.744;2024-01-10T14:00:02;-2.6;60.5
67893;DHT22;54688;52.376;16.744;2024-01-10T14:03:06;-2.6;60.2
67893;DHT22;54688;52.376;16.744;2024-01-10T14:06:08;-2.6;59.8
67893;DHT22;54688;52.376;16.744;2024-01-10T14:09:09;-2.6;59.8
67893;DHT22;54688;52.376;16.744;2024-01-10T14:12:12;-2.5;59.9
67893;DHT22;54688;52.376;16.744;2024-01-10T14:15:14;-2.5;60.1
67893;DHT22;54688;52.376;16.744;2024-01-10T14:18:16;-2.5;60
67893;DHT22;54688;52.376;16.744;2024-01-10T14:21:19;-2.5;59
67893;DHT22;54688;52.376;16.744;2024-01-10T14:24:21;-2.5;58.8
67893;DHT22;54688;52.376;16.744;2024-01-10T14:27:25;-2.5;58.6
67893;DHT22;54688;52.376;16.744;2024-01-10T14:30:27;-2.5;58.6
67893;DHT22;54688;52.376;16.744;2024-01-10T14:33:30;-2.6;57.8
67893;DHT22;54688;52.376;16.744;2024-01-10T14:36:32;-2.6;57.6
67893;DHT22;54688;52.376;16.744;2024-01-10T14:39:34;-2.7;57.3
67893;DHT22;54688;52.376;16.744;2024-01-10T14:42:37;-2.7;56.3
67893;DHT22;54688;52.376;16.744;2024-01-10T14:45:39;-2.8;56.8
67893;DHT22;54688;52.376;16.744;2024-01-10T14:48:41;-2.8;56.9
67893;DHT22;54688;52.376;16.744;2024-01-10T14:51:44;-2.9;57
67893;DHT22;54688;52.376;16.744;2024-01-10T14:54:46;-3;57.5
67893;DHT22;54688;52.376;16.744;2024-01-10T14:57:48;-3;57.3
67893;DHT22;54688;52.376;16.744;2024-01-10T15:00:51;-3.1;57.8
67893;DHT22;54688;52.376;16.744;2024-01-10T15:03:52;-3.2;58.4
67893;DHT22;54688;52.376;16.744;2024-01-10T15:06:55;-3.3;58.6
67893;DHT22;54688;52.376;16.744;2024-01-10T15:09:57;-3.4;58.7
67893;DHT22;54688;52.376;16.744;2024-01-10T15:12:59;-3.5;59.4
67893;DHT22;54688;52.376;16.744;2024-01-10T15:16:01;-3.6;60
67893;DHT22;54688;52.376;16.744;2024-01-10T15:19:04;-3.6;60.5
67893;DHT22;54688;52.376;16.744;2024-01-10T15:22:07;-3.7;61.1
67893;DHT22;54688;52.376;16.744;2024-01-10T15:25:10;-3.8;62.1
67893;DHT22;54688;52.376;16.744;2024-01-10T15:28:12;-3.9;63
67893;DHT22;54688;52.376;16.744;2024-01-10T15:31:14;-3.9;63.5
67893;DHT22;54688;52.376;16.744;2024-01-10T15:34:16;-4;64.1
67893;DHT22;54688;52.376;16.744;2024-01-10T15:37:19;-4;64.6
67893;DHT22;54688;52.376;16.744;2024-01-10T15:40:21;-4.1;64.7
67893;DHT22;54688;52.376;16.744;2024-01-10T15:43:24;-4.2;64.9
67893;DHT22;54688;52.376;16.744;2024-01-10T15:46:26;-4.3;65.2
67893;DHT22;54688;52.376;16.744;2024-01-10T15:49:28;-4.3;65.6
67893;DHT22;54688;52.376;16.744;2024-01-10T15:52:31;-4.4;65.7
67893;DHT22;54688;52.376;16.744;2024-01-10T15:55:33;-4.6;65.8
67893;DHT22;54688;52.376;16.744;2024-01-10T15:58:35;-4.7;66.3
67893;DHT22;54688;52.376;16.744;2024-01-10T16:01:37;-4.7;66.5
67893;DHT22;54688;52.376;16.744;2024-01-10T16:04:40;-4.8;66.7
67893;DHT22;54688;52.376;16.744;2024-01-10T16:07:43;-4.8;66.7
67893;DHT22;54688;52.376;16.744;2024-01-10T16:10:45;-4.9;66.8
67893;DHT22;54688;52.376;16.744;2024-01-10T16:13:48;-4.9;66.7
67893;DHT22;54688;52.376;16.744;2024-01-10T16:16:50;-5;66.3
67893;DHT22;54688;52.376;16.744;2024-01-10T16:19:52;-5.1;67.5
67893;DHT22;54688;52.376;16.744;2024-01-10T16:22:55;-5.1;67.4
67893;DHT22;54688;52.376;16.744;2024-01-10T16:25:57;-5.2;67.5
67893;DHT22;54688;52.376;16.744;2024-01-10T16:28:59;-5.3;67.7
67893;DHT22;54688;52.376;16.744;2024-01-10T16:32:02;-5.4;68
67893;DHT22;54688;52.376;16.744;2024-01-10T16:35:05;-5.4;68.2
67893;DHT22;54688;52.376;16.744;2024-01-10T16:38:10;-5.4;68.4
67893;DHT22;54688;52.376;16.744;2024-01-10T16:41:11;-5.5;69
67893;DHT22;54688;52.376;16.744;2024-01-10T16:44:13;-5.6;68.5
67893;DHT22;54688;52.376;16.744;2024-01-10T16:47:15;-5.7;69.1
67893;DHT22;54688;52.376;16.744;2024-01-10T16:50:18;-5.7;69.2
67893;DHT22;54688;52.376;16.744;2024-01-10T16:53:20;-5.7;69.4
67893;DHT22;54688;52.376;16.744;2024-01-10T16:56:22;-5.8;70.4
67893;DHT22;54688;52.376;16.744;2024-01-10T16:59:24;-5.8;69.4
67893;DHT22;54688;52.376;16.744;2024-01-10T17:02:26;-5.8;69.5
67893;DHT22;54688;52.376;16.744;2024-01-10T17:05:28;-5.8;69.3
67893;DHT22;54688;52.376;16.744;2024-01-10T17:08:31;-5.9;69.3
67893;DHT22;54688;52.376;16.744;2024-01-10T17:11:33;-5.9;69.2
67893;DHT22;54688;52.376;16.744;2024-01-10T17:14:35;-6;69.2
67893;DHT22;54688;52.376;16.744;2024-01-10T17:17:37;-6.1;69.7
67893;DHT22;54688;52.376;16.744;2024-01-10T17:20:40;-6.1;70.2
67893;DHT22;54688;52.376;16.744;2024-01-10T17:23:42;-6.1;70.5
67893;DHT22;54688;52.376;16.744;2024-01-10T17:26:44;-6.1;70.4
67893;DHT22;54688;52.376;16.744;2024-01-10T17:29:46;-6.1;70.6
67893;DHT22;54688;52.376;16.744;2024-01-10T17:32:49;-6.2;70.9
67893;DHT22;54688;52.376;16.744;2024-01-10T17:35:51;-6.2;70.4
67893;DHT22;54688;52.376;16.744;2024-01-10T17:38:54;-6.2;70.9
67893;DHT22;54688;52.376;16.744;2024-01-10T17:41:57;-6.2;71
67893;DHT22;54688;52.376;16.744;2024-01-10T17:44:59;-6.2;70.9
67893;DHT22;54688;52.376;16.744;2024-01-10T17:48:01;-6.3;70.8
67893;DHT22;54688;52.376;16.744;2024-01-10T17:51:03;-6.3;70.4
67893;DHT22;54688;52.376;16.744;2024-01-10T17:54:06;-6.3;70.9
67893;DHT22;54688;52.376;16.744;2024-01-10T17:57:08;-6.4;71.7
67893;DHT22;54688;52.376;16.744;2024-01-10T18:00:12;-6.5;70.5
67893;DHT22;54688;52.376;16.744;2024-01-10T18:03:16;-6.5;69.8
67893;DHT22;54688;52.376;16.744;2024-01-10T18:06:18;-6.6;71.2
67893;DHT22;54688;52.376;16.744;2024-01-10T18:09:20;-6.6;71.6
67893;DHT22;54688;52.376;16.744;2024-01-10T18:12:22;-6.6;71.9
67893;DHT22;54688;52.376;16.744;2024-01-10T18:15:24;-6.6;71.4
67893;DHT22;54688;52.376;16.744;2024-01-10T18:18:26;-6.7;71.6
67893;DHT22;54688;52.376;16.744;2024-01-10T18:21:28;-6.8;71.7
67893;DHT22;54688;52.376;16.744;2024-01-10T18:24:30;-6.8;71.6
67893;DHT22;54688;52.376;16.744;2024-01-10T18:27:33;-6.8;72.3
67893;DHT22;54688;52.376;16.744;2024-01-10T18:30:36;-6.8;72.3
67893;DHT22;54688;52.376;16.744;2024-01-10T18:33:38;-6.8;72.1
67893;DHT22;54688;52.376;16.744;2024-01-10T18:36:40;-6.9;72.1
67893;DHT22;54688;52.376;16.744;2024-01-10T18:39:42;-6.9;72.1
67893;DHT22;54688;52.376;16.744;2024-01-10T18:42:45;-6.9;72
67893;DHT22;54688;52.376;16.744;2024-01-10T18:45:47;-6.9;71.7
67893;DHT22;54688;52.376;16.744;2024-01-10T18:48:50;-6.9;72
67893;DHT22;54688;52.376;16.744;2024-01-10T18:51:53;-6.9;71.9
67893;DHT22;54688;52.376;16.744;2024-01-10T18:54:55;-6.9;72.4
67893;DHT22;54688;52.376;16.744;2024-01-10T18:57:57;-7;72.4
67893;DHT22;54688;52.376;16.744;2024-01-10T19:01:00;-6.9;72.6
67893;DHT22;54688;52.376;16.744;2024-01-10T19:04:03;-7;72.6
67893;DHT22;54688;52.376;16.744;2024-01-10T19:07:06;-7;72.4
67893;DHT22;54688;52.376;16.744;2024-01-10T19:10:08;-7.1;73.2
67893;DHT22;54688;52.376;16.744;2024-01-10T19:13:11;-7.1;72.7
67893;DHT22;54688;52.376;16.744;2024-01-10T19:16:14;-7.2;73
67893;DHT22;54688;52.376;16.744;2024-01-10T19:19:16;-7.2;73
67893;DHT22;54688;52.376;16.744;2024-01-10T19:22:18;-7.2;72.3
67893;DHT22;54688;52.376;16.744;2024-01-10T19:25:23;-7.3;71.6
67893;DHT22;54688;52.376;16.744;2024-01-10T19:28:25;-7.4;71.8
67893;DHT22;54688;52.376;16.744;2024-01-10T19:31:28;-7.5;72
67893;DHT22;54688;52.376;16.744;2024-01-10T19:34:30;-7.5;72.6
67893;DHT22;54688;52.376;16.744;2024-01-10T19:37:32;-7.5;72
67893;DHT22;54688;52.376;16.744;2024-01-10T19:40:35;-7.6;72.8